This is the latest recevied weather packets stored in our database for station/object VK2BLR. If no packets are shown the sender has not sent any weather packets the latest 10 day(s).
| Time | Temp. | Humidity | Pressure | Rain* | Wind** | Luminosity | Snow |
|---|---|---|---|---|---|---|---|
| 1787901691 | 14.44° C | 60% | 1025.6 hPa | 0 mm | - | - | - |
| 1787900790 | 14.44° C | 58% | 1025.3 hPa | 0 mm | - | - | - |
| 1787899892 | 15° C | 57% | 1025.4 hPa | 0 mm | - | - | - |
| 1787898991 | 15.56° C | 56% | 1025.4 hPa | 0 mm | - | - | - |
| 1787898090 | 15.56° C | 56% | 1025.2 hPa | 0 mm | - | - | - |
| 1787897191 | 15.56° C | 55% | 1025.2 hPa | 0 mm | - | - | - |
| 1787896291 | 15.56° C | 56% | 1025.3 hPa | 0 mm | - | - | - |
| 1787895391 | 16.11° C | 54% | 1025.5 hPa | 0 mm | - | - | - |
| 1787894490 | 16.67° C | 53% | 1025.2 hPa | 0 mm | - | - | - |
| 1787893591 | 16.67° C | 53% | 1025.4 hPa | 0 mm | - | - | - |
| 1787892692 | 16.67° C | 53% | 1025.1 hPa | 0 mm | - | - | - |
| 1787891792 | 17.22° C | 53% | 1025.4 hPa | 0 mm | - | - | - |
| 1787890891 | 16.67° C | 54% | 1025.3 hPa | 0 mm | - | - | - |
| 1787889992 | 17.22° C | 53% | 1025.4 hPa | 0 mm | - | - | - |
| 1787889091 | 17.78° C | 50% | 1025.1 hPa | 0 mm | - | - | - |
| 1787888191 | 17.78° C | 50% | 1025.3 hPa | 0 mm | - | - | - |
| 1787887291 | 17.78° C | 50% | 1025.4 hPa | 0 mm | - | - | - |
| 1787886392 | 17.78° C | 50% | 1025.5 hPa | 0 mm | - | - | - |
| 1787885491 | 17.22° C | 52% | 1025.9 hPa | 0 mm | - | - | - |
| 1787884591 | 17.22° C | 52% | 1026.1 hPa | 0 mm | - | - | - |
| 1787883692 | 17.78° C | 50% | 1026.1 hPa | 0 mm | - | - | - |
| 1787882791 | 17.78° C | 50% | 1026.3 hPa | 0 mm | - | - | - |
| 1787881890 | 18.33° C | 50% | 1026.4 hPa | 0 mm | - | - | - |
| 1787880990 | 17.78° C | 50% | 1026.5 hPa | 0 mm | - | - | - |
| 1787880091 | 17.78° C | 51% | 1026.6 hPa | 0 mm | - | - | - |
* Rain latest hour (hover to see other rain measurements)
** Current wind speed in m/s (hover to see current wind gust speed)